createdAt,value
2018-05-14T00:01:26.921Z,15.05
2018-05-14T00:03:55.045Z,14.97
2018-05-14T00:06:23.194Z,14.97
2018-05-14T00:08:51.311Z,15.10
2018-05-14T00:11:19.418Z,15.11
2018-05-14T00:13:47.551Z,15.11
2018-05-14T00:16:15.695Z,14.93
2018-05-14T00:18:43.871Z,15.10
2018-05-14T00:21:12.220Z,15.12
2018-05-14T00:23:40.347Z,15.09
2018-05-14T00:26:08.489Z,15.05
2018-05-14T00:28:36.655Z,15.04
2018-05-14T00:31:04.763Z,15.02
2018-05-14T00:33:32.911Z,15.03
2018-05-14T00:36:01.035Z,15.00
2018-05-14T00:38:29.192Z,15.08
2018-05-14T00:40:57.304Z,15.00
2018-05-14T00:43:25.468Z,15.08
2018-05-14T00:45:53.607Z,15.07
2018-05-14T00:48:21.734Z,15.01
2018-05-14T00:50:49.873Z,14.93
2018-05-14T00:53:17.997Z,14.91
2018-05-14T00:55:46.118Z,15.04
2018-05-14T00:58:14.266Z,15.04
2018-05-14T01:00:42.371Z,14.94
2018-05-14T01:03:10.491Z,14.94
2018-05-14T01:05:38.649Z,14.95
2018-05-14T01:08:06.772Z,15.06
2018-05-14T01:10:34.902Z,15.06
2018-05-14T01:13:03.053Z,14.97
2018-05-14T01:15:31.185Z,14.95
2018-05-14T01:17:59.304Z,15.05
2018-05-14T01:20:27.438Z,15.14
2018-05-14T01:22:55.593Z,15.18
2018-05-14T01:25:23.733Z,15.13
2018-05-14T01:27:52.059Z,15.13
2018-05-14T01:30:20.186Z,15.09
2018-05-14T01:32:48.336Z,15.17
2018-05-14T01:35:16.472Z,15.19
2018-05-14T01:37:44.623Z,15.16
2018-05-14T01:40:12.749Z,14.99
2018-05-14T01:42:41.690Z,15.08
2018-05-14T01:45:09.818Z,15.04
2018-05-14T01:47:37.953Z,15.05
2018-05-14T01:50:06.113Z,15.17
2018-05-14T01:52:34.237Z,15.24
2018-05-14T01:55:02.361Z,15.25
2018-05-14T01:57:30.675Z,15.20
2018-05-14T01:59:58.805Z,15.14
2018-05-14T02:02:26.929Z,15.14
2018-05-14T02:04:55.061Z,15.08
2018-05-14T02:07:23.190Z,15.15
2018-05-14T02:09:51.336Z,15.17
2018-05-14T02:12:19.474Z,15.07
2018-05-14T02:14:47.598Z,15.15
2018-05-14T02:17:15.714Z,15.11
2018-05-14T02:19:43.834Z,15.08
2018-05-14T02:22:11.969Z,15.13
2018-05-14T02:24:40.078Z,15.14
2018-05-14T02:27:08.443Z,15.19
2018-05-14T02:29:36.924Z,15.24
2018-05-14T02:32:05.057Z,15.21
2018-05-14T02:34:33.199Z,15.13
2018-05-14T02:37:01.330Z,15.16
2018-05-14T02:39:29.472Z,15.21
2018-05-14T02:41:57.620Z,15.23
2018-05-14T02:44:25.769Z,15.23
2018-05-14T02:46:54.022Z,15.24
2018-05-14T02:49:22.157Z,15.19
2018-05-14T02:51:50.283Z,15.23
2018-05-14T02:54:18.396Z,15.22
2018-05-14T02:56:46.542Z,15.21
2018-05-14T02:59:14.666Z,15.20
2018-05-14T03:01:42.797Z,15.12
2018-05-14T03:04:10.957Z,15.19
2018-05-14T03:06:39.054Z,15.10
2018-05-14T03:09:07.190Z,15.19
2018-05-14T03:11:35.323Z,15.10
2018-05-14T03:14:03.449Z,15.09
2018-05-14T03:16:31.597Z,15.19
2018-05-14T03:18:59.719Z,15.31
2018-05-14T03:21:27.851Z,15.35
2018-05-14T03:23:55.991Z,15.28
2018-05-14T03:26:24.133Z,15.12
2018-05-14T03:28:52.253Z,15.17
2018-05-14T03:31:20.393Z,15.23
2018-05-14T03:33:48.522Z,15.16
2018-05-14T03:36:17.625Z,15.19
2018-05-14T03:38:45.745Z,15.22
2018-05-14T03:41:14.021Z,15.24
2018-05-14T03:43:42.162Z,15.32
2018-05-14T03:46:10.292Z,15.18
2018-05-14T03:48:38.951Z,15.18
2018-05-14T03:51:07.068Z,15.09
2018-05-14T03:53:35.183Z,15.12
2018-05-14T03:56:03.371Z,15.16
2018-05-14T03:58:43.210Z,15.24
2018-05-14T04:01:28.120Z,15.17
2018-05-14T04:04:08.093Z,15.14
2018-05-14T04:06:37.020Z,15.22
2018-05-14T04:09:05.927Z,15.17
2018-05-14T04:11:34.177Z,15.04
2018-05-14T04:14:02.319Z,15.08
2018-05-14T04:16:30.525Z,15.09
2018-05-14T04:18:58.567Z,15.11
2018-05-14T04:21:26.710Z,15.14
2018-05-14T04:23:54.857Z,15.12
2018-05-14T04:26:22.966Z,15.14
2018-05-14T04:28:51.091Z,15.18
2018-05-14T04:31:19.234Z,15.21
2018-05-14T04:33:47.335Z,15.27
2018-05-14T04:36:15.482Z,15.38
2018-05-14T04:38:43.609Z,15.33
2018-05-14T04:41:11.784Z,15.29
2018-05-14T04:43:39.948Z,15.29
2018-05-14T04:46:08.072Z,15.26
2018-05-14T04:48:36.201Z,15.37
2018-05-14T04:51:04.321Z,15.34
2018-05-14T04:53:32.477Z,15.37
2018-05-14T04:56:00.605Z,15.40
2018-05-14T04:58:28.750Z,15.41
2018-05-14T05:00:56.893Z,15.24
2018-05-14T05:03:25.041Z,15.26
2018-05-14T05:05:56.610Z,15.23
2018-05-14T05:08:24.724Z,15.30
2018-05-14T05:10:52.876Z,15.33
2018-05-14T05:13:21.159Z,15.33
2018-05-14T05:15:50.029Z,15.33
2018-05-14T05:18:18.138Z,15.37
2018-05-14T05:20:50.079Z,15.33
2018-05-14T05:23:18.214Z,15.19
2018-05-14T05:25:46.378Z,15.20
2018-05-14T05:28:14.527Z,15.17
2018-05-14T05:30:42.668Z,15.29
2018-05-14T05:33:10.789Z,15.45
2018-05-14T05:35:38.934Z,15.53
2018-05-14T05:38:07.058Z,15.43
2018-05-14T05:40:35.209Z,15.35
2018-05-14T05:43:03.334Z,15.43
2018-05-14T05:45:31.484Z,15.42
2018-05-14T05:47:59.609Z,15.45
2018-05-14T05:50:27.730Z,15.46
2018-05-14T05:52:55.875Z,15.57
2018-05-14T05:55:24.019Z,15.62
2018-05-14T05:57:52.143Z,15.64
2018-05-14T06:00:20.273Z,15.64
2018-05-14T06:02:48.399Z,15.64
2018-05-14T06:05:16.535Z,15.73
2018-05-14T06:07:44.665Z,15.73
2018-05-14T06:10:16.637Z,15.77
2018-05-14T06:12:44.769Z,15.74
2018-05-14T06:15:12.883Z,15.69
2018-05-14T06:17:41.080Z,15.67
2018-05-14T06:20:09.470Z,15.70
2018-05-14T06:22:37.660Z,15.76
2018-05-14T06:25:05.868Z,15.82
2018-05-14T06:27:34.016Z,15.83
2018-05-14T06:30:02.132Z,15.90
2018-05-14T06:32:30.272Z,16.00
2018-05-14T06:34:58.413Z,16.00
2018-05-14T06:37:26.717Z,16.02
2018-05-14T06:39:54.675Z,16.10
2018-05-14T06:42:22.837Z,16.08
2018-05-14T06:44:50.976Z,16.14
2018-05-14T06:47:19.112Z,16.14
2018-05-14T06:49:47.543Z,16.09
2018-05-14T06:52:15.555Z,16.13
2018-05-14T06:54:43.707Z,16.18
2018-05-14T06:57:11.831Z,16.24
2018-05-14T06:59:39.946Z,16.30
2018-05-14T07:02:08.077Z,16.38
2018-05-14T07:04:36.226Z,16.39
2018-05-14T07:07:04.333Z,16.41
2018-05-14T07:09:32.439Z,16.42
2018-05-14T07:12:00.575Z,16.45
2018-05-14T07:14:28.710Z,16.51
2018-05-14T07:16:56.868Z,16.52
2018-05-14T07:19:25.004Z,16.60
2018-05-14T07:21:53.146Z,16.57
2018-05-14T07:24:21.265Z,16.61
2018-05-14T07:26:49.403Z,16.71
2018-05-14T07:29:17.529Z,16.84
2018-05-14T07:31:45.652Z,16.86
2018-05-14T07:34:13.837Z,16.87
2018-05-14T07:36:41.943Z,16.96
2018-05-14T07:39:10.183Z,17.04
2018-05-14T07:41:38.226Z,17.09
2018-05-14T07:44:06.344Z,17.15
2018-05-14T07:46:34.473Z,17.24
2018-05-14T07:49:02.617Z,17.18
2018-05-14T07:51:30.740Z,17.22
2018-05-14T07:53:58.853Z,17.22
2018-05-14T07:56:26.994Z,17.29
2018-05-14T07:58:55.121Z,17.35
2018-05-14T08:01:23.249Z,17.42
2018-05-14T08:03:51.385Z,17.34
2018-05-14T08:06:19.533Z,17.43
2018-05-14T08:08:47.671Z,17.47
2018-05-14T08:11:15.807Z,17.51
2018-05-14T08:13:43.933Z,17.60
2018-05-14T08:16:12.077Z,17.61
2018-05-14T08:18:40.214Z,17.70
2018-05-14T08:21:08.355Z,17.62
2018-05-14T08:23:36.523Z,17.66
2018-05-14T08:26:04.785Z,17.72
2018-05-14T08:28:32.912Z,17.83
2018-05-14T08:31:01.056Z,17.93
2018-05-14T08:33:29.174Z,17.95
2018-05-14T08:35:57.291Z,18.02
2018-05-14T08:38:25.417Z,18.18
2018-05-14T08:40:53.576Z,18.31
2018-05-14T08:43:21.702Z,18.33
2018-05-14T08:45:49.823Z,18.41
2018-05-14T08:48:17.979Z,18.48
2018-05-14T08:50:46.083Z,18.39
2018-05-14T08:53:14.231Z,18.33
2018-05-14T08:55:42.352Z,18.36
2018-05-14T08:58:10.463Z,18.48
2018-05-14T09:00:38.667Z,18.52
2018-05-14T09:03:06.756Z,18.57
2018-05-14T09:05:34.880Z,18.66
2018-05-14T09:08:03.001Z,18.63
2018-05-14T09:10:31.196Z,18.67
2018-05-14T09:12:59.310Z,18.62
2018-05-14T09:15:27.459Z,18.68
2018-05-14T09:17:55.611Z,18.63
2018-05-14T09:20:23.756Z,18.74
2018-05-14T09:22:51.876Z,18.73
2018-05-14T09:25:20.040Z,18.71
2018-05-14T09:27:48.143Z,18.69
2018-05-14T09:30:16.269Z,18.76
2018-05-14T09:32:44.554Z,18.82
2018-05-14T09:35:12.699Z,18.87
2018-05-14T09:37:40.822Z,19.00
2018-05-14T09:40:09.287Z,19.08
2018-05-14T09:42:37.435Z,19.10
2018-05-14T09:45:05.557Z,19.14
2018-05-14T09:47:33.709Z,19.16
2018-05-14T09:50:02.382Z,19.21
2018-05-14T09:52:30.503Z,19.31
2018-05-14T09:54:58.662Z,19.39
2018-05-14T09:57:26.775Z,19.45
2018-05-14T09:59:54.886Z,19.47
2018-05-14T10:02:23.035Z,19.50
2018-05-14T10:04:51.189Z,19.55
2018-05-14T10:07:19.377Z,19.66
2018-05-14T10:09:47.521Z,19.77
2018-05-14T10:12:15.635Z,19.88
2018-05-14T10:14:43.780Z,19.87
2018-05-14T10:17:11.924Z,19.92
2018-05-14T10:19:40.053Z,19.95
2018-05-14T10:22:08.159Z,19.89
2018-05-14T10:24:36.315Z,19.91
2018-05-14T10:27:04.431Z,20.12
2018-05-14T10:29:32.575Z,20.28
2018-05-14T10:32:00.773Z,20.35
2018-05-14T10:34:28.852Z,20.34
2018-05-14T10:36:56.977Z,20.34
2018-05-14T10:39:25.114Z,20.43
2018-05-14T10:41:53.264Z,20.41
2018-05-14T10:44:21.361Z,20.44
2018-05-14T10:46:49.589Z,20.55
2018-05-14T10:49:17.623Z,20.67
2018-05-14T10:51:45.790Z,20.73
2018-05-14T10:54:13.913Z,20.89
2018-05-14T10:56:45.734Z,20.96
2018-05-14T10:59:14.012Z,21.00
2018-05-14T11:01:42.169Z,21.08
2018-05-14T11:04:10.289Z,21.14
2018-05-14T11:06:38.428Z,21.19
2018-05-14T11:09:10.115Z,21.23
2018-05-14T11:11:38.225Z,21.29
2018-05-14T11:14:06.371Z,21.39
2018-05-14T11:16:34.513Z,21.47
2018-05-14T11:19:02.635Z,21.50
2018-05-14T11:21:30.779Z,21.51
2018-05-14T11:23:58.936Z,21.52
2018-05-14T11:26:27.057Z,21.58
2018-05-14T11:28:55.181Z,21.73
2018-05-14T11:31:23.317Z,21.83
2018-05-14T11:33:51.591Z,21.95
2018-05-14T11:36:19.748Z,22.06
2018-05-14T11:38:47.879Z,22.05
2018-05-14T11:41:16.013Z,22.18
2018-05-14T11:43:44.150Z,22.33
2018-05-14T11:46:12.299Z,22.51
2018-05-14T11:48:40.563Z,22.65
2018-05-14T11:51:08.734Z,22.53
2018-05-14T11:53:36.883Z,22.52
2018-05-14T11:56:05.019Z,22.71
2018-05-14T11:58:33.125Z,22.69
2018-05-14T12:01:01.317Z,22.77
2018-05-14T12:03:29.431Z,22.98
2018-05-14T12:05:57.559Z,22.96
2018-05-14T12:08:25.697Z,23.10
2018-05-14T12:10:53.841Z,23.17
2018-05-14T12:13:21.970Z,23.41
2018-05-14T12:15:50.121Z,23.51
2018-05-14T12:18:18.235Z,23.30
2018-05-14T12:20:46.383Z,23.30
2018-05-14T12:23:14.724Z,23.36
2018-05-14T12:25:42.851Z,23.43
2018-05-14T12:28:10.947Z,23.57
2018-05-14T12:30:39.100Z,23.57
2018-05-14T12:33:07.241Z,23.53
2018-05-14T12:35:35.365Z,23.68
2018-05-14T12:38:03.506Z,23.82
2018-05-14T12:40:31.652Z,23.69
2018-05-14T12:42:59.795Z,23.90
2018-05-14T12:45:28.006Z,23.76
2018-05-14T12:47:56.152Z,23.88
2018-05-14T12:50:25.174Z,24.01
2018-05-14T12:52:53.308Z,24.13
2018-05-14T12:55:21.438Z,24.08
2018-05-14T12:57:49.570Z,23.98
2018-05-14T13:00:17.722Z,24.01
2018-05-14T13:02:45.878Z,24.12
2018-05-14T13:05:14.157Z,24.22
2018-05-14T13:07:42.319Z,24.26
2018-05-14T13:10:10.441Z,24.52
2018-05-14T13:12:38.568Z,24.41
2018-05-14T13:15:09.755Z,24.56
2018-05-14T13:17:37.869Z,24.51
2018-05-14T13:20:05.988Z,24.43
2018-05-14T13:22:34.131Z,24.39
2018-05-14T13:25:02.234Z,24.46
2018-05-14T13:27:30.379Z,24.60
2018-05-14T13:29:58.817Z,24.56
2018-05-14T13:32:26.955Z,24.68
2018-05-14T13:34:55.073Z,24.93
2018-05-14T13:37:23.296Z,24.98
2018-05-14T13:39:51.334Z,24.86
2018-05-14T13:42:19.484Z,24.77
2018-05-14T13:44:47.613Z,24.92
2018-05-14T13:47:15.733Z,25.06
2018-05-14T13:49:43.864Z,24.94
2018-05-14T13:52:11.978Z,24.93
2018-05-14T13:54:40.084Z,24.90
2018-05-14T13:57:08.235Z,24.92
2018-05-14T13:59:36.365Z,25.08
2018-05-14T14:02:04.462Z,25.10
2018-05-14T14:04:32.579Z,24.97
2018-05-14T14:07:01.613Z,24.94
2018-05-14T14:09:29.707Z,25.01
2018-05-14T14:11:57.876Z,25.13
2018-05-14T14:14:25.988Z,25.11
2018-05-14T14:16:54.102Z,25.08
2018-05-14T14:19:22.297Z,25.24
2018-05-14T14:21:50.412Z,25.32
2018-05-14T14:24:19.744Z,25.31
2018-05-14T14:26:47.707Z,25.20
2018-05-14T14:29:15.884Z,25.32
2018-05-14T14:31:44.009Z,25.23
2018-05-14T14:34:12.133Z,25.08
2018-05-14T14:36:40.283Z,25.04
2018-05-14T14:39:08.387Z,25.10
2018-05-14T14:41:36.512Z,25.19
2018-05-14T14:44:08.261Z,25.02
2018-05-14T14:46:36.313Z,25.18
2018-05-14T14:49:04.458Z,25.22
2018-05-14T14:51:32.562Z,25.33
2018-05-14T14:54:00.685Z,25.22
2018-05-14T14:56:28.824Z,25.30
2018-05-14T14:58:57.157Z,25.44
2018-05-14T15:01:25.272Z,25.40
2018-05-14T15:03:53.396Z,25.43
2018-05-14T15:06:21.700Z,25.42
2018-05-14T15:08:49.816Z,25.60
2018-05-14T15:11:17.933Z,25.45
2018-05-14T15:13:46.303Z,25.47
2018-05-14T15:16:14.422Z,25.62
2018-05-14T15:18:42.565Z,25.63
2018-05-14T15:21:10.698Z,25.65
2018-05-14T15:23:38.814Z,25.45
2018-05-14T15:26:06.994Z,25.53
2018-05-14T15:28:35.147Z,25.53
2018-05-14T15:31:03.336Z,25.54
2018-05-14T15:33:31.543Z,25.40
2018-05-14T15:36:00.083Z,25.44
2018-05-14T15:38:28.217Z,25.52
2018-05-14T15:40:56.355Z,25.40
2018-05-14T15:43:24.485Z,25.32
2018-05-14T15:45:52.604Z,25.41
2018-05-14T15:48:20.716Z,25.45
2018-05-14T15:50:48.831Z,25.45
2018-05-14T15:53:16.955Z,25.39
2018-05-14T15:55:45.074Z,25.57
2018-05-14T15:58:19.761Z,25.58
2018-05-14T16:00:47.957Z,25.60
2018-05-14T16:03:16.091Z,25.65
2018-05-14T16:05:44.208Z,25.67
2018-05-14T16:08:12.344Z,25.65
2018-05-14T16:10:40.442Z,25.67
2018-05-14T16:13:08.566Z,25.41
2018-05-14T16:15:36.677Z,25.23
2018-05-14T16:18:04.816Z,25.05
2018-05-14T16:20:32.937Z,25.02
2018-05-14T16:23:01.056Z,24.98
2018-05-14T16:25:29.188Z,24.90
2018-05-14T16:27:57.338Z,24.96
2018-05-14T16:30:25.468Z,24.97
2018-05-14T16:32:53.589Z,25.12
2018-05-14T16:35:21.746Z,25.15
2018-05-14T16:37:49.838Z,25.12
2018-05-14T16:40:17.975Z,25.25
2018-05-14T16:42:46.120Z,25.30
2018-05-14T16:45:14.742Z,25.18
2018-05-14T16:47:42.859Z,24.99
2018-05-14T16:50:11.017Z,25.00
2018-05-14T16:52:39.175Z,24.85
2018-05-14T16:55:07.310Z,24.86
2018-05-14T16:57:35.519Z,24.92
2018-05-14T17:00:03.636Z,25.00
2018-05-14T17:02:31.773Z,25.05
2018-05-14T17:04:59.945Z,25.06
2018-05-14T17:07:28.056Z,25.13
2018-05-14T17:09:56.165Z,25.16
2018-05-14T17:12:24.295Z,25.18
2018-05-14T17:14:52.443Z,25.37
2018-05-14T17:17:20.625Z,25.29
2018-05-14T17:19:48.707Z,25.28
2018-05-14T17:22:16.825Z,25.29
2018-05-14T17:24:44.946Z,25.35
2018-05-14T17:27:13.095Z,25.28
2018-05-14T17:29:41.214Z,25.12
2018-05-14T17:32:09.339Z,25.06
2018-05-14T17:34:37.469Z,24.95
2018-05-14T17:37:05.608Z,24.97
2018-05-14T17:39:33.722Z,25.04
2018-05-14T17:42:01.874Z,24.98
2018-05-14T17:44:29.993Z,24.97
2018-05-14T17:46:58.181Z,24.84
2018-05-14T17:49:26.472Z,24.87
2018-05-14T17:51:54.585Z,24.92
2018-05-14T17:54:22.691Z,25.01
2018-05-14T17:56:50.821Z,24.89
2018-05-14T17:59:18.972Z,24.76
2018-05-14T18:01:47.300Z,24.78
2018-05-14T18:04:15.411Z,24.76
2018-05-14T18:06:43.537Z,24.72
2018-05-14T18:09:11.656Z,24.72
2018-05-14T18:11:39.808Z,24.67
2018-05-14T18:14:07.935Z,24.69
2018-05-14T18:16:36.046Z,24.52
2018-05-14T18:19:04.192Z,24.50
2018-05-14T18:21:38.458Z,24.46
2018-05-14T18:24:06.297Z,24.42
2018-05-14T18:26:40.037Z,24.29
2018-05-14T18:29:08.150Z,24.20
2018-05-14T18:31:42.005Z,24.24
2018-05-14T18:34:10.153Z,24.14
2018-05-14T18:36:38.254Z,24.11
2018-05-14T18:39:06.428Z,24.01
2018-05-14T18:41:34.515Z,23.89
2018-05-14T18:44:02.681Z,23.80
2018-05-14T18:46:30.868Z,23.69
2018-05-14T18:48:58.928Z,23.55
2018-05-14T18:51:27.045Z,23.45
2018-05-14T18:53:55.173Z,23.35
2018-05-14T18:56:23.308Z,23.20
2018-05-14T18:58:51.424Z,23.13
2018-05-14T19:01:19.563Z,23.04
2018-05-14T19:03:47.702Z,22.89
2018-05-14T19:06:16.726Z,22.80
2018-05-14T19:08:44.842Z,22.71
2018-05-14T19:11:18.602Z,22.61
2018-05-14T19:13:46.721Z,22.56
2018-05-14T19:16:20.562Z,22.48
2018-05-14T19:18:48.686Z,22.39
2018-05-14T19:21:16.802Z,22.34
2018-05-14T19:23:50.672Z,22.24
2018-05-14T19:26:18.784Z,22.18
2018-05-14T19:28:52.502Z,22.08
2018-05-14T19:31:20.622Z,22.01
2018-05-14T19:33:54.329Z,21.99
2018-05-14T19:36:22.445Z,21.94
2018-05-14T19:38:50.558Z,21.88
2018-05-14T19:41:18.686Z,21.80
2018-05-14T19:43:46.803Z,21.71
2018-05-14T19:46:14.935Z,21.66
2018-05-14T19:48:43.069Z,21.62
2018-05-14T19:51:11.196Z,21.60
2018-05-14T19:53:39.309Z,21.56
2018-05-14T19:56:07.454Z,21.49
2018-05-14T19:58:35.570Z,21.43
2018-05-14T20:01:04.352Z,21.34
2018-05-14T20:03:32.494Z,21.30
2018-05-14T20:06:00.553Z,21.26
2018-05-14T20:08:28.673Z,21.20
2018-05-14T20:10:56.801Z,21.13
2018-05-14T20:13:24.943Z,21.12
2018-05-14T20:15:53.052Z,21.07
2018-05-14T20:18:21.167Z,21.01
2018-05-14T20:20:49.304Z,20.98
2018-05-14T20:23:17.488Z,20.95
2018-05-14T20:25:45.628Z,20.88
2018-05-14T20:28:13.754Z,20.88
2018-05-14T20:30:41.937Z,20.85
2018-05-14T20:33:10.088Z,20.81
2018-05-14T20:35:38.189Z,20.76
2018-05-14T20:38:06.358Z,20.71
2018-05-14T20:40:34.527Z,20.68
2018-05-14T20:43:02.652Z,20.64
2018-05-14T20:45:30.766Z,20.59
2018-05-14T20:47:58.916Z,20.56
2018-05-14T20:50:27.048Z,20.51
2018-05-14T20:52:55.280Z,20.46
2018-05-14T20:55:23.370Z,20.43
2018-05-14T20:57:54.747Z,20.40
2018-05-14T21:00:22.881Z,20.33
2018-05-14T21:02:51.033Z,20.28
2018-05-14T21:05:19.193Z,20.26
2018-05-14T21:07:52.834Z,20.27
2018-05-14T21:10:20.963Z,20.22
2018-05-14T21:12:49.085Z,20.18
2018-05-14T21:15:17.236Z,20.13
2018-05-14T21:17:45.349Z,20.09
2018-05-14T21:20:13.485Z,20.07
2018-05-14T21:22:41.623Z,20.04
2018-05-14T21:25:09.769Z,19.99
2018-05-14T21:27:37.923Z,19.97
2018-05-14T21:30:06.181Z,19.96
2018-05-14T21:32:34.348Z,19.97
2018-05-14T21:35:02.483Z,19.92
2018-05-14T21:37:30.627Z,19.91
2018-05-14T21:39:58.801Z,19.87
2018-05-14T21:42:26.895Z,19.82
2018-05-14T21:44:55.054Z,19.76
2018-05-14T21:47:23.183Z,19.75
2018-05-14T21:49:51.279Z,19.70
2018-05-14T21:52:19.417Z,19.69
2018-05-14T21:54:47.575Z,19.66
2018-05-14T21:57:15.737Z,19.64
2018-05-14T21:59:44.090Z,19.59
2018-05-14T22:02:12.211Z,19.56
2018-05-14T22:04:40.315Z,19.55
2018-05-14T22:07:08.449Z,19.47
2018-05-14T22:09:39.504Z,19.47
2018-05-14T22:12:07.684Z,19.46
2018-05-14T22:14:35.830Z,19.44
2018-05-14T22:17:03.928Z,19.40
2018-05-14T22:19:32.053Z,19.37
2018-05-14T22:22:00.415Z,19.34
2018-05-14T22:24:28.528Z,19.30
2018-05-14T22:26:56.671Z,19.27
2018-05-14T22:29:24.806Z,19.25
2018-05-14T22:31:52.919Z,19.23
2018-05-14T22:34:21.068Z,19.20
2018-05-14T22:36:49.174Z,19.17
2018-05-14T22:39:17.308Z,19.14
2018-05-14T22:41:45.410Z,19.13
2018-05-14T22:44:13.535Z,19.12
2018-05-14T22:46:41.647Z,19.09
2018-05-14T22:49:09.747Z,19.06
2018-05-14T22:51:37.867Z,19.00
2018-05-14T22:54:06.039Z,18.97
2018-05-14T22:56:34.135Z,18.94
2018-05-14T22:59:02.343Z,18.93
2018-05-14T23:01:30.510Z,18.92
2018-05-14T23:03:58.615Z,18.89
2018-05-14T23:06:26.901Z,18.83
2018-05-14T23:08:55.034Z,18.81
2018-05-14T23:11:23.147Z,18.78
2018-05-14T23:13:51.267Z,18.74
2018-05-14T23:16:19.377Z,18.72
2018-05-14T23:18:47.494Z,18.70
2018-05-14T23:21:15.615Z,18.67
2018-05-14T23:23:47.087Z,18.66
2018-05-14T23:26:15.199Z,18.63
2018-05-14T23:28:43.322Z,18.61
2018-05-14T23:31:11.431Z,18.58
2018-05-14T23:33:39.544Z,18.54
2018-05-14T23:36:07.667Z,18.50
2018-05-14T23:38:35.792Z,18.47
2018-05-14T23:41:03.911Z,18.44
2018-05-14T23:43:32.019Z,18.41
2018-05-14T23:46:00.131Z,18.40
2018-05-14T23:48:28.238Z,18.35
2018-05-14T23:50:56.589Z,18.37
2018-05-14T23:53:24.700Z,18.37
2018-05-14T23:55:52.802Z,18.33
2018-05-14T23:58:20.922Z,18.34
